sensor_id;sensor_type;location;lat;lon;timestamp;pressure;altitude;pressure_sealevel;temperature;humidity
31585;BME280;18191;51.288;12.390;2023-05-09T00:02:00;48949.16;;;-144.47;66.27
31585;BME280;18191;51.288;12.390;2023-05-09T00:06:51;48969.06;;;-144.47;65.84
31585;BME280;18191;51.288;12.390;2023-05-09T00:11:41;48969.06;;;-144.47;66.09
31585;BME280;18191;51.288;12.390;2023-05-09T00:16:31;48959.09;;;-144.47;67.13
31585;BME280;18191;51.288;12.390;2023-05-09T00:21:22;48992.94;;;-144.47;68.44
31585;BME280;18191;51.288;12.390;2023-05-09T00:26:12;48986.97;;;-144.47;68.84
31585;BME280;18191;51.288;12.390;2023-05-09T00:31:02;48965.06;;;-144.47;69.00
31585;BME280;18191;51.288;12.390;2023-05-09T00:35:53;48941.19;;;-144.47;69.54
31585;BME280;18191;51.288;12.390;2023-05-09T00:40:43;48965.06;;;-144.47;70.27
31585;BME280;18191;51.288;12.390;2023-05-09T00:45:33;48969.06;;;-144.47;70.30
31585;BME280;18191;51.288;12.390;2023-05-09T00:50:24;48923.31;;;-144.47;71.32
31585;BME280;18191;51.288;12.390;2023-05-09T00:55:14;48969.06;;;-144.47;71.03
31585;BME280;18191;51.288;12.390;2023-05-09T01:00:05;48901.41;;;-144.47;71.39
31585;BME280;18191;51.288;12.390;2023-05-09T01:05:03;48953.13;;;-144.47;71.94
31585;BME280;18191;51.288;12.390;2023-05-09T01:09:55;48951.16;;;-144.47;71.88
31585;BME280;18191;51.288;12.390;2023-05-09T01:14:55;48937.22;;;-144.47;72.50
31585;BME280;18191;51.288;12.390;2023-05-09T01:19:56;48977.00;;;-144.47;72.97
31585;BME280;18191;51.288;12.390;2023-05-09T01:29:43;48973.03;;;-144.47;72.64
31585;BME280;18191;51.288;12.390;2023-05-09T01:34:34;48981.00;;;-144.47;72.83
31585;BME280;18191;51.288;12.390;2023-05-09T01:39:27;48935.25;;;-144.47;72.93
31585;BME280;18191;51.288;12.390;2023-05-09T01:44:18;48931.25;;;-144.47;73.04
31585;BME280;18191;51.288;12.390;2023-05-09T01:49:10;48949.16;;;-144.47;73.40
31585;BME280;18191;51.288;12.390;2023-05-09T01:54:00;48992.94;;;-144.47;73.57
31585;BME280;18191;51.288;12.390;2023-05-09T01:58:52;48984.97;;;-144.47;73.81
31585;BME280;18191;51.288;12.390;2023-05-09T02:03:46;48984.97;;;-144.47;73.77
31585;BME280;18191;51.288;12.390;2023-05-09T02:08:39;48941.19;;;-144.47;73.01
31585;BME280;18191;51.288;12.390;2023-05-09T02:13:30;48965.06;;;-144.47;72.37
31585;BME280;18191;51.288;12.390;2023-05-09T02:18:20;48981.00;;;-144.47;70.81
31585;BME280;18191;51.288;12.390;2023-05-09T02:23:10;48988.94;;;-144.47;70.82
31585;BME280;18191;51.288;12.390;2023-05-09T02:28:01;48945.19;;;-144.47;70.28
31585;BME280;18191;51.288;12.390;2023-05-09T02:32:58;48947.16;;;-144.47;69.92
31585;BME280;18191;51.288;12.390;2023-05-09T02:37:49;48949.16;;;-144.47;69.11
31585;BME280;18191;51.288;12.390;2023-05-09T02:42:40;48965.06;;;-144.47;68.63
31585;BME280;18191;51.288;12.390;2023-05-09T02:47:30;48933.25;;;-144.47;69.35
31585;BME280;18191;51.288;12.390;2023-05-09T02:52:20;48961.09;;;-144.47;68.18
31585;BME280;18191;51.288;12.390;2023-05-09T02:57:11;48933.25;;;-144.47;67.64
31585;BME280;18191;51.288;12.390;2023-05-09T03:02:01;48969.06;;;-144.47;67.98
31585;BME280;18191;51.288;12.390;2023-05-09T03:06:51;48973.03;;;-144.47;69.78
31585;BME280;18191;51.288;12.390;2023-05-09T03:11:41;48992.94;;;-144.47;69.79
31585;BME280;18191;51.288;12.390;2023-05-09T03:16:31;48949.16;;;-144.47;71.77
31585;BME280;18191;51.288;12.390;2023-05-09T03:21:21;48925.28;;;-144.47;71.97
31585;BME280;18191;51.288;12.390;2023-05-09T03:26:12;48939.22;;;-144.47;72.50
31585;BME280;18191;51.288;12.390;2023-05-09T03:31:02;48992.94;;;-144.47;72.77
31585;BME280;18191;51.288;12.390;2023-05-09T03:35:54;48911.38;;;-144.47;71.29
31585;BME280;18191;51.288;12.390;2023-05-09T03:40:44;48939.22;;;-144.47;71.96
31585;BME280;18191;51.288;12.390;2023-05-09T03:45:34;48967.06;;;-144.47;72.04
31585;BME280;18191;51.288;12.390;2023-05-09T03:50:25;48901.41;;;-144.47;72.01
31585;BME280;18191;51.288;12.390;2023-05-09T03:55:15;48965.06;;;-144.47;70.60
31585;BME280;18191;51.288;12.390;2023-05-09T04:00:05;48909.38;;;-144.47;70.46
31585;BME280;18191;51.288;12.390;2023-05-09T04:04:56;48963.09;;;-144.47;70.17
31585;BME280;18191;51.288;12.390;2023-05-09T04:09:47;48937.22;;;-144.47;69.95
31585;BME280;18191;51.288;12.390;2023-05-09T04:14:38;48937.22;;;-144.47;70.67
31585;BME280;18191;51.288;12.390;2023-05-09T04:19:28;48905.41;;;-144.47;71.03
31585;BME280;18191;51.288;12.390;2023-05-09T04:24:18;48941.19;;;-144.47;69.99
31585;BME280;18191;51.288;12.390;2023-05-09T04:29:12;48949.16;;;-144.47;69.47
31585;BME280;18191;51.288;12.390;2023-05-09T04:34:03;48961.09;;;-144.47;69.68
31585;BME280;18191;51.288;12.390;2023-05-09T04:38:53;48933.25;;;-144.47;68.54
31585;BME280;18191;51.288;12.390;2023-05-09T04:43:44;48975.03;;;-144.47;68.35
31585;BME280;18191;51.288;12.390;2023-05-09T04:48:34;48984.97;;;-144.47;69.06
31585;BME280;18191;51.288;12.390;2023-05-09T04:53:25;48945.19;;;-144.47;67.92
31585;BME280;18191;51.288;12.390;2023-05-09T04:58:15;48925.28;;;-144.47;65.43
31585;BME280;18191;51.288;12.390;2023-05-09T05:03:06;48917.34;;;-144.47;52.81
31585;BME280;18191;51.288;12.390;2023-05-09T05:07:56;48917.34;;;-144.47;40.40
31585;BME280;18191;51.288;12.390;2023-05-09T05:12:46;48931.25;;;-144.47;49.30
31585;BME280;18191;51.288;12.390;2023-05-09T05:17:36;48875.56;;;-144.47;43.62
31585;BME280;18191;51.288;12.390;2023-05-09T05:22:26;48853.69;;;-144.47;37.98
31585;BME280;18191;51.288;12.390;2023-05-09T05:27:17;48865.63;;;-144.47;35.03
31585;BME280;18191;51.288;12.390;2023-05-09T05:32:07;48881.53;;;-144.47;34.79
31585;BME280;18191;51.288;12.390;2023-05-09T05:36:57;48883.53;;;-144.47;35.66
31585;BME280;18191;51.288;12.390;2023-05-09T05:41:47;48873.56;;;-144.47;33.10
31585;BME280;18191;51.288;12.390;2023-05-09T05:46:38;48853.69;;;-144.47;32.67
31585;BME280;18191;51.288;12.390;2023-05-09T05:51:28;48837.78;;;-144.47;34.65
31585;BME280;18191;51.288;12.390;2023-05-09T05:56:18;48873.56;;;-144.47;33.77
31585;BME280;18191;51.288;12.390;2023-05-09T06:01:08;48845.72;;;-144.47;39.41
31585;BME280;18191;51.288;12.390;2023-05-09T06:05:58;48865.63;;;-144.47;39.31
31585;BME280;18191;51.288;12.390;2023-05-09T06:10:49;48885.50;;;-144.47;40.44
31585;BME280;18191;51.288;12.390;2023-05-09T06:15:39;48881.53;;;-144.47;39.55
31585;BME280;18191;51.288;12.390;2023-05-09T06:20:29;48841.75;;;-144.47;39.71
31585;BME280;18191;51.288;12.390;2023-05-09T06:25:20;48861.63;;;-144.47;40.12
31585;BME280;18191;51.288;12.390;2023-05-09T06:30:10;48875.56;;;-144.47;38.93
31585;BME280;18191;51.288;12.390;2023-05-09T06:35:01;48925.28;;;-144.47;42.98
31585;BME280;18191;51.288;12.390;2023-05-09T06:39:51;48909.38;;;-144.47;42.96
31585;BME280;18191;51.288;12.390;2023-05-09T06:44:41;48909.38;;;-144.47;43.45
31585;BME280;18191;51.288;12.390;2023-05-09T06:49:32;48873.56;;;-144.47;42.05
31585;BME280;18191;51.288;12.390;2023-05-09T06:54:24;48907.38;;;-144.47;42.81
31585;BME280;18191;51.288;12.390;2023-05-09T06:59:14;48845.72;;;-144.47;41.92
31585;BME280;18191;51.288;12.390;2023-05-09T07:04:05;48881.53;;;-144.47;40.06
31585;BME280;18191;51.288;12.390;2023-05-09T07:08:55;48901.41;;;-144.47;40.34
31585;BME280;18191;51.288;12.390;2023-05-09T07:13:45;48917.34;;;-144.47;40.40
31585;BME280;18191;51.288;12.390;2023-05-09T07:18:36;48897.44;;;-144.47;41.41
31585;BME280;18191;51.288;12.390;2023-05-09T07:23:27;48899.44;;;-144.47;40.39
31585;BME280;18191;51.288;12.390;2023-05-09T07:28:17;48915.34;;;-144.47;41.43
31585;BME280;18191;51.288;12.390;2023-05-09T07:33:08;48873.56;;;-144.47;40.95
31585;BME280;18191;51.288;12.390;2023-05-09T07:37:58;48897.44;;;-144.47;40.67
31585;BME280;18191;51.288;12.390;2023-05-09T07:42:48;48921.31;;;-144.47;40.36
31585;BME280;18191;51.288;12.390;2023-05-09T07:47:40;48887.50;;;-144.47;39.61
31585;BME280;18191;51.288;12.390;2023-05-09T07:52:30;48905.41;;;-144.47;38.54
31585;BME280;18191;51.288;12.390;2023-05-09T07:57:21;48855.66;;;-144.47;39.88
31585;BME280;18191;51.288;12.390;2023-05-09T08:02:11;48891.47;;;-144.47;39.47
31585;BME280;18191;51.288;12.390;2023-05-09T08:07:02;48877.56;;;-144.47;40.21
31585;BME280;18191;51.288;12.390;2023-05-09T08:11:53;48913.34;;;-144.47;38.46
31585;BME280;18191;51.288;12.390;2023-05-09T08:16:43;48867.59;;;-144.47;38.93
31585;BME280;18191;51.288;12.390;2023-05-09T08:21:33;48895.44;;;-144.47;37.84
31585;BME280;18191;51.288;12.390;2023-05-09T08:26:24;48845.72;;;-144.47;37.57
31585;BME280;18191;51.288;12.390;2023-05-09T08:31:16;48877.56;;;-144.47;37.28
31585;BME280;18191;51.288;12.390;2023-05-09T08:36:06;48885.50;;;-144.47;36.93
31585;BME280;18191;51.288;12.390;2023-05-09T08:40:59;48893.47;;;-144.47;37.04
31585;BME280;18191;51.288;12.390;2023-05-09T08:45:51;48905.41;;;-144.47;36.40
31585;BME280;18191;51.288;12.390;2023-05-09T08:50:43;48909.38;;;-144.47;35.99
31585;BME280;18191;51.288;12.390;2023-05-09T08:55:33;48913.34;;;-144.47;34.78
31585;BME280;18191;51.288;12.390;2023-05-09T09:00:24;48925.28;;;-144.47;34.39
31585;BME280;18191;51.288;12.390;2023-05-09T09:05:18;48909.38;;;-144.47;34.11
31585;BME280;18191;51.288;12.390;2023-05-09T09:10:08;48905.41;;;-144.47;33.96
31585;BME280;18191;51.288;12.390;2023-05-09T09:15:02;48879.53;;;-144.47;34.08
31585;BME280;18191;51.288;12.390;2023-05-09T09:19:54;48909.38;;;-144.47;33.28
31585;BME280;18191;51.288;12.390;2023-05-09T09:24:44;48879.53;;;-144.47;33.60
31585;BME280;18191;51.288;12.390;2023-05-09T09:29:35;48913.34;;;-144.47;32.53
31585;BME280;18191;51.288;12.390;2023-05-09T09:34:27;48881.53;;;-144.47;33.32
31585;BME280;18191;51.288;12.390;2023-05-09T09:39:18;48857.66;;;-144.47;32.68
31585;BME280;18191;51.288;12.390;2023-05-09T09:44:15;48883.53;;;-144.47;31.97
31585;BME280;18191;51.288;12.390;2023-05-09T09:49:07;48897.44;;;-144.47;32.35
31585;BME280;18191;51.288;12.390;2023-05-09T09:53:57;48857.66;;;-144.47;31.59
31585;BME280;18191;51.288;12.390;2023-05-09T09:59:04;48837.78;;;-144.47;31.25
31585;BME280;18191;51.288;12.390;2023-05-09T10:03:56;48901.41;;;-144.47;31.75
31585;BME280;18191;51.288;12.390;2023-05-09T10:08:47;48857.66;;;-144.47;32.48
31585;BME280;18191;51.288;12.390;2023-05-09T10:13:37;48867.59;;;-144.47;32.30
31585;BME280;18191;51.288;12.390;2023-05-09T10:18:28;48881.53;;;-144.47;31.38
31585;BME280;18191;51.288;12.390;2023-05-09T10:23:19;48913.34;;;-144.47;33.08
31585;BME280;18191;51.288;12.390;2023-05-09T10:28:10;48885.50;;;-144.47;32.04
31585;BME280;18191;51.288;12.390;2023-05-09T10:37:53;48905.41;;;-144.47;31.99
31585;BME280;18191;51.288;12.390;2023-05-09T10:42:44;48893.47;;;-144.47;31.78
31585;BME280;18191;51.288;12.390;2023-05-09T10:47:35;48883.53;;;-144.47;31.64
31585;BME280;18191;51.288;12.390;2023-05-09T10:52:30;48887.50;;;-144.47;32.53
31585;BME280;18191;51.288;12.390;2023-05-09T10:57:20;48893.47;;;-144.47;32.07
31585;BME280;18191;51.288;12.390;2023-05-09T11:02:14;48857.66;;;-144.47;30.73
31585;BME280;18191;51.288;12.390;2023-05-09T11:07:23;48889.50;;;-144.47;30.36
31585;BME280;18191;51.288;12.390;2023-05-09T11:12:14;48873.56;;;-144.47;30.22
31585;BME280;18191;51.288;12.390;2023-05-09T11:17:26;48893.47;;;-144.47;31.59
31585;BME280;18191;51.288;12.390;2023-05-09T11:22:20;48857.66;;;-144.47;30.92
31585;BME280;18191;51.288;12.390;2023-05-09T11:27:15;48903.41;;;-144.47;29.75
31585;BME280;18191;51.288;12.390;2023-05-09T11:32:05;48853.69;;;-144.47;29.87
31585;BME280;18191;51.288;12.390;2023-05-09T11:37:05;48865.63;;;-144.47;30.33
31585;BME280;18191;51.288;12.390;2023-05-09T11:41:56;48881.53;;;-144.47;29.69
31585;BME280;18191;51.288;12.390;2023-05-09T11:46:47;48869.59;;;-144.47;30.20
31585;BME280;18191;51.288;12.390;2023-05-09T11:51:38;48893.47;;;-144.47;30.30
31585;BME280;18191;51.288;12.390;2023-05-09T11:56:29;48885.50;;;-144.47;28.46
31585;BME280;18191;51.288;12.390;2023-05-09T12:01:20;48865.63;;;-144.47;29.75
31585;BME280;18191;51.288;12.390;2023-05-09T12:06:14;48845.72;;;-144.47;29.73
31585;BME280;18191;51.288;12.390;2023-05-09T12:11:08;48865.63;;;-144.47;28.03
31585;BME280;18191;51.288;12.390;2023-05-09T12:15:59;48849.69;;;-144.47;28.96
31585;BME280;18191;51.288;12.390;2023-05-09T12:20:49;48865.63;;;-144.47;28.50
31585;BME280;18191;51.288;12.390;2023-05-09T12:26:14;48887.50;;;-144.47;28.85
31585;BME280;18191;51.288;12.390;2023-05-09T12:30:57;48877.56;;;-144.47;28.24
31585;BME280;18191;51.288;12.390;2023-05-09T12:35:48;48869.59;;;-144.47;28.86
31585;BME280;18191;51.288;12.390;2023-05-09T12:40:58;48885.50;;;-144.47;28.16
31585;BME280;18191;51.288;12.390;2023-05-09T12:45:51;48859.66;;;-144.47;28.64
31585;BME280;18191;51.288;12.390;2023-05-09T12:50:45;48859.66;;;-144.47;28.73
31585;BME280;18191;51.288;12.390;2023-05-09T12:55:38;48861.63;;;-144.47;27.99
31585;BME280;18191;51.288;12.390;2023-05-09T13:00:42;48889.50;;;-144.47;29.29
31585;BME280;18191;51.288;12.390;2023-05-09T13:05:32;48861.63;;;-144.47;26.97
31585;BME280;18191;51.288;12.390;2023-05-09T13:10:23;48889.50;;;-144.47;26.77
31585;BME280;18191;51.288;12.390;2023-05-09T13:15:15;48881.53;;;-144.47;27.05
31585;BME280;18191;51.288;12.390;2023-05-09T13:20:05;48877.56;;;-144.47;26.22
31585;BME280;18191;51.288;12.390;2023-05-09T13:24:56;48861.63;;;-144.47;25.50
31585;BME280;18191;51.288;12.390;2023-05-09T13:29:46;48863.63;;;-144.47;25.61
31585;BME280;18191;51.288;12.390;2023-05-09T13:34:36;48861.63;;;-144.47;26.34
31585;BME280;18191;51.288;12.390;2023-05-09T13:39:26;48881.53;;;-144.47;25.53
31585;BME280;18191;51.288;12.390;2023-05-09T13:44:18;48857.66;;;-144.47;26.75
31585;BME280;18191;51.288;12.390;2023-05-09T13:49:08;48851.69;;;-144.47;25.50
31585;BME280;18191;51.288;12.390;2023-05-09T13:53:58;48813.91;;;-144.47;25.91
31585;BME280;18191;51.288;12.390;2023-05-09T13:58:48;48847.72;;;-144.47;26.99
31585;BME280;18191;51.288;12.390;2023-05-09T14:03:39;48833.78;;;-144.47;25.36
31585;BME280;18191;51.288;12.390;2023-05-09T14:08:29;48841.75;;;-144.47;26.29
31585;BME280;18191;51.288;12.390;2023-05-09T14:13:19;48853.69;;;-144.47;25.33
31585;BME280;18191;51.288;12.390;2023-05-09T14:18:09;48823.84;;;-144.47;26.92
31585;BME280;18191;51.288;12.390;2023-05-09T14:23:00;48845.72;;;-144.47;24.32
31585;BME280;18191;51.288;12.390;2023-05-09T14:27:51;48833.78;;;-144.47;26.15
31585;BME280;18191;51.288;12.390;2023-05-09T14:32:41;48829.81;;;-144.47;24.86
31585;BME280;18191;51.288;12.390;2023-05-09T14:37:32;48857.66;;;-144.47;26.26
31585;BME280;18191;51.288;12.390;2023-05-09T14:42:22;48847.72;;;-144.47;25.74
31585;BME280;18191;51.288;12.390;2023-05-09T14:47:12;48837.78;;;-144.47;25.38
31585;BME280;18191;51.288;12.390;2023-05-09T14:52:02;48807.94;;;-144.47;25.37
31585;BME280;18191;51.288;12.390;2023-05-09T14:56:53;48837.78;;;-144.47;25.71
31585;BME280;18191;51.288;12.390;2023-05-09T15:01:43;48821.84;;;-144.47;25.74
31585;BME280;18191;51.288;12.390;2023-05-09T15:06:34;48809.91;;;-144.47;25.41
31585;BME280;18191;51.288;12.390;2023-05-09T15:11:24;48817.88;;;-144.47;24.40
31585;BME280;18191;51.288;12.390;2023-05-09T15:16:16;48859.66;;;-144.47;25.16
31585;BME280;18191;51.288;12.390;2023-05-09T15:21:06;48873.56;;;-144.47;25.90
31585;BME280;18191;51.288;12.390;2023-05-09T15:25:56;48841.75;;;-144.47;25.12
31585;BME280;18191;51.288;12.390;2023-05-09T15:30:46;48829.81;;;-144.47;24.89
31585;BME280;18191;51.288;12.390;2023-05-09T15:35:37;48807.94;;;-144.47;26.27
31585;BME280;18191;51.288;12.390;2023-05-09T15:40:27;48865.63;;;-144.47;26.13
31585;BME280;18191;51.288;12.390;2023-05-09T15:45:19;48841.75;;;-144.47;26.45
31585;BME280;18191;51.288;12.390;2023-05-09T15:50:09;48823.84;;;-144.47;25.55
31585;BME280;18191;51.288;12.390;2023-05-09T15:54:59;48833.78;;;-144.47;26.33
31585;BME280;18191;51.288;12.390;2023-05-09T15:59:50;48845.72;;;-144.47;25.13
31585;BME280;18191;51.288;12.390;2023-05-09T16:04:44;48865.63;;;-144.47;25.92
31585;BME280;18191;51.288;12.390;2023-05-09T16:09:34;48903.41;;;-144.47;27.01
31585;BME280;18191;51.288;12.390;2023-05-09T16:14:26;48865.63;;;-144.47;26.07
31585;BME280;18191;51.288;12.390;2023-05-09T16:19:16;48843.72;;;-144.47;26.96
31585;BME280;18191;51.288;12.390;2023-05-09T16:24:06;48829.81;;;-144.47;26.05
31585;BME280;18191;51.288;12.390;2023-05-09T16:28:57;48849.69;;;-144.47;26.94
31585;BME280;18191;51.288;12.390;2023-05-09T16:33:47;48851.69;;;-144.47;27.33
31585;BME280;18191;51.288;12.390;2023-05-09T16:38:38;48853.69;;;-144.47;27.75
31585;BME280;18191;51.288;12.390;2023-05-09T16:43:28;48843.72;;;-144.47;27.96
31585;BME280;18191;51.288;12.390;2023-05-09T16:48:19;48867.59;;;-144.47;27.82
31585;BME280;18191;51.288;12.390;2023-05-09T16:53:10;48835.78;;;-144.47;28.11
31585;BME280;18191;51.288;12.390;2023-05-09T16:58:01;48839.75;;;-144.47;28.33
31585;BME280;18191;51.288;12.390;2023-05-09T17:02:51;48859.66;;;-144.47;28.52
31585;BME280;18191;51.288;12.390;2023-05-09T17:07:42;48859.66;;;-144.47;28.66
31585;BME280;18191;51.288;12.390;2023-05-09T17:12:34;48867.59;;;-144.47;29.64
31585;BME280;18191;51.288;12.390;2023-05-09T17:17:24;48851.69;;;-144.47;29.23
31585;BME280;18191;51.288;12.390;2023-05-09T17:22:14;48873.56;;;-144.47;29.91
31585;BME280;18191;51.288;12.390;2023-05-09T17:27:04;48855.66;;;-144.47;29.58
31585;BME280;18191;51.288;12.390;2023-05-09T17:31:57;48833.78;;;-144.47;29.81
31585;BME280;18191;51.288;12.390;2023-05-09T17:36:51;48879.53;;;-144.47;30.18
31585;BME280;18191;51.288;12.390;2023-05-09T17:41:41;48853.69;;;-144.47;30.59
31585;BME280;18191;51.288;12.390;2023-05-09T17:46:32;48849.69;;;-144.47;31.65
31585;BME280;18191;51.288;12.390;2023-05-09T17:51:22;48873.56;;;-144.47;31.44
31585;BME280;18191;51.288;12.390;2023-05-09T17:56:12;48917.34;;;-144.47;32.30
31585;BME280;18191;51.288;12.390;2023-05-09T18:01:03;48885.50;;;-144.47;33.61
31585;BME280;18191;51.288;12.390;2023-05-09T18:05:54;48877.56;;;-144.47;34.05
31585;BME280;18191;51.288;12.390;2023-05-09T18:10:44;48891.47;;;-144.47;34.32
31585;BME280;18191;51.288;12.390;2023-05-09T18:15:35;48861.63;;;-144.47;34.69
31585;BME280;18191;51.288;12.390;2023-05-09T18:20:27;48901.41;;;-144.47;35.42
31585;BME280;18191;51.288;12.390;2023-05-09T18:25:17;48857.66;;;-144.47;35.19
31585;BME280;18191;51.288;12.390;2023-05-09T18:30:08;48893.47;;;-144.47;36.11
31585;BME280;18191;51.288;12.390;2023-05-09T18:34:59;48853.69;;;-144.47;36.49
31585;BME280;18191;51.288;12.390;2023-05-09T18:39:49;48861.63;;;-144.47;37.25
31585;BME280;18191;51.288;12.390;2023-05-09T18:44:39;48861.63;;;-144.47;37.69
31585;BME280;18191;51.288;12.390;2023-05-09T18:49:29;48863.63;;;-144.47;37.92
31585;BME280;18191;51.288;12.390;2023-05-09T18:54:20;48881.53;;;-144.47;38.85
31585;BME280;18191;51.288;12.390;2023-05-09T18:59:11;48859.66;;;-144.47;38.84
31585;BME280;18191;51.288;12.390;2023-05-09T19:04:02;48841.75;;;-144.47;38.81
31585;BME280;18191;51.288;12.390;2023-05-09T19:08:53;48857.66;;;-144.47;39.91
31585;BME280;18191;51.288;12.390;2023-05-09T19:13:43;48849.69;;;-144.47;39.90
31585;BME280;18191;51.288;12.390;2023-05-09T19:18:37;48829.81;;;-144.47;40.41
31585;BME280;18191;51.288;12.390;2023-05-09T19:23:28;48861.63;;;-144.47;40.91
31585;BME280;18191;51.288;12.390;2023-05-09T19:28:19;48841.75;;;-144.47;41.20
31585;BME280;18191;51.288;12.390;2023-05-09T19:33:11;48873.56;;;-144.47;40.84
31585;BME280;18191;51.288;12.390;2023-05-09T19:38:03;48857.66;;;-144.47;41.51
31585;BME280;18191;51.288;12.390;2023-05-09T19:42:54;48895.44;;;-144.47;41.36
31585;BME280;18191;51.288;12.390;2023-05-09T19:47:44;48915.34;;;-144.47;41.99
31585;BME280;18191;51.288;12.390;2023-05-09T19:52:35;48869.59;;;-144.47;42.71
31585;BME280;18191;51.288;12.390;2023-05-09T19:57:26;48889.50;;;-144.47;43.05
31585;BME280;18191;51.288;12.390;2023-05-09T20:02:16;48859.66;;;-144.47;43.66
31585;BME280;18191;51.288;12.390;2023-05-09T20:07:06;48863.63;;;-144.47;43.62
31585;BME280;18191;51.288;12.390;2023-05-09T20:11:57;48869.59;;;-144.47;44.09
31585;BME280;18191;51.288;12.390;2023-05-09T20:16:48;48885.50;;;-144.47;44.77
31585;BME280;18191;51.288;12.390;2023-05-09T20:21:39;48873.56;;;-144.47;44.33
31585;BME280;18191;51.288;12.390;2023-05-09T20:26:30;48895.44;;;-144.47;45.42
31585;BME280;18191;51.288;12.390;2023-05-09T20:31:20;48865.63;;;-144.47;44.71
31585;BME280;18191;51.288;12.390;2023-05-09T20:36:12;48849.69;;;-144.47;45.56
31585;BME280;18191;51.288;12.390;2023-05-09T20:41:02;48901.41;;;-144.47;47.33
31585;BME280;18191;51.288;12.390;2023-05-09T20:45:53;48825.84;;;-144.47;47.54
31585;BME280;18191;51.288;12.390;2023-05-09T20:50:43;48859.66;;;-144.47;46.92
31585;BME280;18191;51.288;12.390;2023-05-09T20:55:33;48837.78;;;-144.47;46.61
31585;BME280;18191;51.288;12.390;2023-05-09T21:00:23;48885.50;;;-144.47;47.40
31585;BME280;18191;51.288;12.390;2023-05-09T21:05:14;48889.50;;;-144.47;47.25
31585;BME280;18191;51.288;12.390;2023-05-09T21:10:05;48821.84;;;-144.47;50.04
31585;BME280;18191;51.288;12.390;2023-05-09T21:14:55;48853.69;;;-144.47;47.47
31585;BME280;18191;51.288;12.390;2023-05-09T21:19:45;48863.63;;;-144.47;47.56
31585;BME280;18191;51.288;12.390;2023-05-09T21:24:42;48889.50;;;-144.47;49.16
31585;BME280;18191;51.288;12.390;2023-05-09T21:29:32;48833.78;;;-144.47;48.44
31585;BME280;18191;51.288;12.390;2023-05-09T21:34:22;48861.63;;;-144.47;49.19
31585;BME280;18191;51.288;12.390;2023-05-09T21:39:12;48865.63;;;-144.47;49.31
31585;BME280;18191;51.288;12.390;2023-05-09T21:44:03;48869.59;;;-144.47;50.06
31585;BME280;18191;51.288;12.390;2023-05-09T21:49:00;48831.81;;;-144.47;51.11
31585;BME280;18191;51.288;12.390;2023-05-09T21:53:50;48849.69;;;-144.47;50.96
31585;BME280;18191;51.288;12.390;2023-05-09T21:58:40;48869.59;;;-144.47;50.58
31585;BME280;18191;51.288;12.390;2023-05-09T22:03:30;48871.59;;;-144.47;50.83
31585;BME280;18191;51.288;12.390;2023-05-09T22:08:21;48907.38;;;-144.47;50.86
31585;BME280;18191;51.288;12.390;2023-05-09T22:13:11;48849.69;;;-144.47;52.87
31585;BME280;18191;51.288;12.390;2023-05-09T22:18:01;48883.53;;;-144.47;51.99
31585;BME280;18191;51.288;12.390;2023-05-09T22:22:51;48885.50;;;-144.47;52.26
31585;BME280;18191;51.288;12.390;2023-05-09T22:27:42;48869.59;;;-144.47;51.90
31585;BME280;18191;51.288;12.390;2023-05-09T22:32:33;48917.34;;;-144.47;53.18
31585;BME280;18191;51.288;12.390;2023-05-09T22:37:23;48889.50;;;-144.47;53.51
31585;BME280;18191;51.288;12.390;2023-05-09T22:42:13;48903.41;;;-144.47;52.57
31585;BME280;18191;51.288;12.390;2023-05-09T22:47:04;48865.63;;;-144.47;53.97
31585;BME280;18191;51.288;12.390;2023-05-09T22:51:56;48881.53;;;-144.47;55.31
31585;BME280;18191;51.288;12.390;2023-05-09T22:56:46;48861.63;;;-144.47;55.00
31585;BME280;18191;51.288;12.390;2023-05-09T23:01:36;48863.63;;;-144.47;56.00
31585;BME280;18191;51.288;12.390;2023-05-09T23:06:27;48907.38;;;-144.47;57.00
31585;BME280;18191;51.288;12.390;2023-05-09T23:11:17;48885.50;;;-144.47;57.57
31585;BME280;18191;51.288;12.390;2023-05-09T23:16:07;48873.56;;;-144.47;57.29
31585;BME280;18191;51.288;12.390;2023-05-09T23:20:57;48853.69;;;-144.47;57.58
31585;BME280;18191;51.288;12.390;2023-05-09T23:25:47;48873.56;;;-144.47;57.83
31585;BME280;18191;51.288;12.390;2023-05-09T23:30:38;48881.53;;;-144.47;58.17
31585;BME280;18191;51.288;12.390;2023-05-09T23:35:28;48877.56;;;-144.47;58.05
31585;BME280;18191;51.288;12.390;2023-05-09T23:40:18;48907.38;;;-144.47;58.12
31585;BME280;18191;51.288;12.390;2023-05-09T23:45:08;48909.38;;;-144.47;59.09
31585;BME280;18191;51.288;12.390;2023-05-09T23:49:59;48861.63;;;-144.47;58.85
31585;BME280;18191;51.288;12.390;2023-05-09T23:54:49;48855.66;;;-144.47;58.10
31585;BME280;18191;51.288;12.390;2023-05-09T23:59:39;48851.69;;;-144.47;58.47
